createdAt,value
2019-05-06T00:02:16.074Z,64.10
2019-05-06T00:04:45.688Z,64.38
2019-05-06T00:07:15.464Z,64.15
2019-05-06T00:09:45.148Z,62.44
2019-05-06T00:12:14.922Z,64.67
2019-05-06T00:14:44.602Z,62.60
2019-05-06T00:17:14.602Z,62.97
2019-05-06T00:19:44.761Z,62.90
2019-05-06T00:22:14.627Z,64.60
2019-05-06T00:25:00.938Z,64.81
2019-05-06T00:27:34.175Z,65.35
2019-05-06T00:30:04.622Z,67.47
2019-05-06T00:32:34.795Z,65.46
2019-05-06T00:35:06.476Z,66.91
2019-05-06T00:37:36.161Z,66.40
2019-05-06T00:40:08.928Z,64.13
2019-05-06T00:42:40.187Z,66.49
2019-05-06T00:45:10.425Z,64.92
2019-05-06T00:47:40.033Z,65.37
2019-05-06T00:50:10.279Z,63.50
2019-05-06T00:52:40.173Z,63.77
2019-05-06T00:55:10.051Z,65.60
2019-05-06T00:57:45.480Z,64.89
2019-05-06T01:00:18.428Z,64.80
2019-05-06T01:02:48.157Z,66.20
2019-05-06T01:05:18.650Z,66.31
2019-05-06T01:07:48.299Z,65.57
2019-05-06T01:10:18.702Z,65.62
2019-05-06T01:12:54.440Z,66.69
2019-05-06T01:15:25.969Z,68.15
2019-05-06T01:17:55.612Z,67.82
2019-05-06T01:20:25.225Z,68.18
2019-05-06T01:22:54.866Z,67.09
2019-05-06T01:25:24.619Z,68.38
2019-05-06T01:27:54.271Z,67.64
2019-05-06T01:30:24.416Z,66.99
2019-05-06T01:32:54.474Z,67.47
2019-05-06T01:35:24.639Z,66.04
2019-05-06T01:38:14.572Z,68.25
2019-05-06T01:41:01.144Z,66.50
2019-05-06T01:43:35.051Z,66.51
2019-05-06T01:46:04.797Z,68.59
2019-05-06T01:48:49.558Z,68.98
2019-05-06T01:51:23.883Z,71.02
2019-05-06T01:53:54.449Z,68.19
2019-05-06T01:56:24.338Z,69.37
2019-05-06T01:58:53.992Z,67.29
2019-05-06T02:01:25.042Z,67.68
2019-05-06T02:03:54.979Z,68.54
2019-05-06T02:06:25.043Z,70.59
2019-05-06T02:08:55.020Z,71.00
2019-05-06T02:11:24.808Z,69.51
2019-05-06T02:13:54.448Z,68.33
2019-05-06T02:16:24.196Z,69.31
2019-05-06T02:18:54.161Z,67.31
2019-05-06T02:21:29.675Z,69.56
2019-05-06T02:24:00.962Z,67.51
2019-05-06T02:26:30.571Z,69.73
2019-05-06T02:29:04.161Z,69.18
2019-05-06T02:31:50.610Z,68.33
2019-05-06T02:34:25.465Z,68.20
2019-05-06T02:37:06.388Z,68.91
2019-05-06T02:39:36.179Z,69.06
2019-05-06T02:42:08.173Z,69.03
2019-05-06T02:44:37.882Z,69.71
2019-05-06T02:47:09.195Z,68.45
2019-05-06T02:49:40.473Z,68.99
2019-05-06T02:52:10.172Z,68.94
2019-05-06T02:54:42.541Z,68.14
2019-05-06T02:57:13.254Z,68.25
2019-05-06T02:59:44.215Z,67.88
2019-05-06T03:02:14.311Z,68.89
2019-05-06T03:04:44.149Z,69.08
2019-05-06T03:07:14.699Z,68.62
2019-05-06T03:09:44.716Z,70.00
2019-05-06T03:12:14.389Z,71.18
2019-05-06T03:14:45.540Z,70.80
2019-05-06T03:17:15.185Z,69.80
2019-05-06T03:19:46.437Z,70.23
2019-05-06T03:22:29.757Z,71.37
2019-05-06T03:25:06.206Z,70.11
2019-05-06T03:27:32.956Z,69.72
2019-05-06T03:30:04.028Z,70.63
2019-05-06T03:32:41.303Z,68.11
2019-05-06T03:35:29.840Z,68.27
2019-05-06T03:37:38.937Z,69.51
2019-05-06T03:40:08.813Z,69.79
2019-05-06T03:42:38.428Z,72.66
2019-05-06T03:45:13.160Z,70.58
2019-05-06T03:47:43.956Z,70.81
2019-05-06T03:50:13.935Z,69.97
2019-05-06T03:52:44.860Z,70.53
2019-05-06T03:55:14.860Z,69.84
2019-05-06T03:57:45.490Z,70.48
2019-05-06T04:00:16.598Z,69.96
2019-05-06T04:02:46.364Z,69.80
2019-05-06T04:05:17.226Z,70.15
2019-05-06T04:07:48.293Z,71.22
2019-05-06T04:10:18.182Z,69.10
2019-05-06T04:12:53.516Z,70.28
2019-05-06T04:15:26.835Z,71.45
2019-05-06T04:17:58.454Z,70.01
2019-05-06T04:20:39.130Z,72.12
2019-05-06T04:23:24.983Z,70.27
2019-05-06T04:25:56.660Z,70.59
2019-05-06T04:28:27.919Z,71.41
2019-05-06T04:30:58.761Z,70.19
2019-05-06T04:33:28.469Z,69.97
2019-05-06T04:35:58.148Z,71.00
2019-05-06T04:38:28.058Z,70.59
2019-05-06T04:40:57.809Z,69.99
2019-05-06T04:43:27.515Z,69.46
2019-05-06T04:45:57.186Z,71.07
2019-05-06T04:48:26.979Z,71.61
2019-05-06T04:50:56.758Z,70.91
2019-05-06T04:53:27.108Z,70.45
2019-05-06T04:55:56.991Z,70.94
2019-05-06T04:58:27.818Z,70.80
2019-05-06T05:00:57.831Z,69.08
2019-05-06T05:03:27.819Z,69.31
2019-05-06T05:05:57.526Z,70.61
2019-05-06T05:08:39.213Z,69.67
2019-05-06T05:11:12.899Z,70.43
2019-05-06T05:13:44.307Z,69.27
2019-05-06T05:16:15.739Z,71.16
2019-05-06T05:18:50.297Z,69.41
2019-05-06T05:21:20.017Z,71.01
2019-05-06T05:23:49.708Z,71.08
2019-05-06T05:26:19.996Z,71.16
2019-05-06T05:28:49.980Z,69.31
2019-05-06T05:31:19.711Z,72.42
2019-05-06T05:33:49.400Z,71.99
2019-05-06T05:36:20.181Z,70.66
2019-05-06T05:38:52.213Z,71.53
2019-05-06T05:41:23.309Z,71.48
2019-05-06T05:43:54.993Z,71.25
2019-05-06T05:46:24.880Z,71.65
2019-05-06T05:48:54.361Z,71.68
2019-05-06T05:51:24.043Z,71.22
2019-05-06T05:53:54.705Z,71.84
2019-05-06T05:56:24.632Z,72.54
2019-05-06T05:58:54.331Z,71.16
2019-05-06T06:01:25.291Z,71.60
2019-05-06T06:03:55.381Z,70.50
2019-05-06T06:06:25.529Z,72.61
2019-05-06T06:08:55.482Z,73.05
2019-05-06T06:11:26.764Z,72.39
2019-05-06T06:13:58.092Z,72.76
2019-05-06T06:16:35.196Z,71.98
2019-05-06T06:19:22.997Z,69.17
2019-05-06T06:22:02.609Z,69.06
2019-05-06T06:24:33.731Z,69.28
2019-05-06T06:27:03.440Z,70.80
2019-05-06T06:29:33.388Z,70.70
2019-05-06T06:32:13.896Z,69.77
2019-05-06T06:34:48.429Z,69.72
2019-05-06T06:37:17.960Z,69.61
2019-05-06T06:39:49.701Z,70.81
2019-05-06T06:42:19.416Z,69.61
2019-05-06T06:44:49.093Z,70.14
2019-05-06T06:47:19.227Z,70.36
2019-05-06T06:49:49.011Z,69.37
2019-05-06T06:52:19.539Z,70.39
2019-05-06T06:54:49.452Z,70.56
2019-05-06T06:57:21.786Z,71.04
2019-05-06T06:59:53.669Z,68.80
2019-05-06T07:02:32.806Z,69.62
2019-05-06T07:05:24.467Z,67.40
2019-05-06T07:07:47.447Z,67.82
2019-05-06T07:10:34.233Z,67.83
2019-05-06T07:13:03.983Z,67.72
2019-05-06T07:15:33.882Z,68.28
2019-05-06T07:18:03.751Z,68.98
2019-05-06T07:20:39.329Z,68.43
2019-05-06T07:23:25.054Z,68.83
2019-05-06T07:25:55.605Z,68.47
2019-05-06T07:28:26.228Z,67.44
2019-05-06T07:30:56.509Z,66.36
2019-05-06T07:33:26.285Z,67.12
2019-05-06T07:35:56.048Z,66.32
2019-05-06T07:38:25.690Z,66.62
2019-05-06T07:40:56.966Z,66.35
2019-05-06T07:43:43.547Z,66.33
2019-05-06T07:46:15.685Z,65.79
2019-05-06T07:48:45.341Z,65.88
2019-05-06T07:51:14.943Z,64.21
2019-05-06T07:53:44.652Z,64.59
2019-05-06T07:56:14.333Z,64.21
2019-05-06T07:58:43.972Z,63.57
2019-05-06T08:01:13.936Z,63.59
2019-05-06T08:03:43.932Z,63.58
2019-05-06T08:06:13.545Z,63.55
2019-05-06T08:08:43.638Z,62.88
2019-05-06T08:11:13.522Z,62.35
2019-05-06T08:13:43.612Z,62.43
2019-05-06T08:16:13.450Z,63.02
2019-05-06T08:18:43.143Z,62.23
2019-05-06T08:21:14.496Z,62.16
2019-05-06T08:23:48.873Z,62.52
2019-05-06T08:26:18.561Z,61.66
2019-05-06T08:28:48.200Z,63.16
2019-05-06T08:31:19.533Z,63.22
2019-05-06T08:33:49.238Z,62.28
2019-05-06T08:36:23.005Z,62.41
2019-05-06T08:39:06.265Z,63.93
2019-05-06T08:41:35.877Z,65.25
2019-05-06T08:44:06.686Z,64.08
2019-05-06T08:46:36.321Z,65.82
2019-05-06T08:49:06.024Z,66.74
2019-05-06T08:51:47.230Z,67.65
2019-05-06T08:54:32.471Z,68.51
2019-05-06T08:57:02.658Z,68.57
2019-05-06T08:59:32.414Z,69.28
2019-05-06T09:02:03.577Z,70.74
2019-05-06T09:04:33.217Z,68.68
2019-05-06T09:07:03.083Z,70.53
2019-05-06T09:09:32.804Z,69.21
2019-05-06T09:12:02.861Z,70.50
2019-05-06T09:14:32.926Z,70.32
2019-05-06T09:17:03.131Z,71.68
2019-05-06T09:19:33.311Z,71.96
2019-05-06T09:22:03.327Z,73.39
2019-05-06T09:24:33.014Z,72.60
2019-05-06T09:27:04.301Z,71.79
2019-05-06T09:29:47.640Z,72.73
2019-05-06T09:32:24.597Z,71.80
2019-05-06T09:34:56.214Z,71.41
2019-05-06T09:37:25.872Z,70.63
2019-05-06T09:39:55.492Z,70.14
2019-05-06T09:42:25.312Z,69.27
2019-05-06T09:44:54.963Z,67.30
2019-05-06T09:47:26.290Z,67.99
2019-05-06T09:49:55.936Z,69.20
2019-05-06T09:52:25.552Z,69.64
2019-05-06T09:55:08.731Z,70.29
2019-05-06T09:57:55.913Z,71.20
2019-05-06T10:00:28.130Z,72.25
2019-05-06T10:02:58.055Z,69.34
2019-05-06T10:05:27.760Z,71.61
2019-05-06T10:07:57.390Z,70.96
2019-05-06T10:10:27.264Z,68.74
2019-05-06T10:12:57.123Z,69.49
2019-05-06T10:15:26.927Z,69.85
2019-05-06T10:18:09.337Z,69.98
2019-05-06T10:20:43.022Z,71.13
2019-05-06T10:23:14.404Z,71.91
2019-05-06T10:25:44.704Z,70.87
2019-05-06T10:28:19.803Z,70.84
2019-05-06T10:30:49.495Z,70.77
2019-05-06T10:33:23.544Z,70.67
2019-05-06T10:35:53.205Z,70.15
2019-05-06T10:38:49.413Z,71.55
2019-05-06T10:41:26.615Z,70.23
2019-05-06T10:44:06.385Z,69.07
2019-05-06T10:46:36.000Z,69.15
2019-05-06T10:49:05.711Z,69.83
2019-05-06T10:51:35.111Z,67.95
2019-05-06T10:54:05.254Z,67.67
2019-05-06T10:56:49.091Z,68.38
2019-05-06T10:59:13.808Z,68.33
2019-05-06T11:01:45.899Z,68.87
2019-05-06T11:04:15.535Z,67.73
2019-05-06T11:06:45.162Z,66.22
2019-05-06T11:09:14.833Z,65.93
2019-05-06T11:11:44.446Z,66.10
2019-05-06T11:14:14.098Z,64.11
2019-05-06T11:16:43.774Z,64.84
2019-05-06T11:19:13.460Z,64.32
2019-05-06T11:21:45.078Z,63.82
2019-05-06T11:24:14.446Z,63.81
2019-05-06T11:26:44.084Z,62.59
2019-05-06T11:29:33.890Z,61.39
2019-05-06T11:32:17.733Z,63.61
2019-05-06T11:34:48.991Z,61.30
2019-05-06T11:37:23.203Z,59.77
2019-05-06T11:39:53.076Z,60.15
2019-05-06T11:42:29.037Z,59.29
2019-05-06T11:44:54.399Z,57.21
2019-05-06T11:47:24.046Z,55.05
2019-05-06T11:49:56.484Z,56.21
2019-05-06T11:52:26.848Z,54.30
2019-05-06T11:54:56.511Z,53.95
2019-05-06T11:57:26.211Z,53.11
2019-05-06T11:59:55.861Z,52.21
2019-05-06T12:02:27.210Z,50.69
2019-05-06T12:04:56.910Z,49.60
2019-05-06T12:07:26.564Z,49.54
2019-05-06T12:09:56.325Z,50.08
2019-05-06T12:12:25.939Z,51.66
2019-05-06T12:14:55.642Z,54.95
2019-05-06T12:17:25.266Z,52.52
2019-05-06T12:19:54.892Z,52.53
2019-05-06T12:22:26.356Z,53.33
2019-05-06T12:24:55.984Z,55.56
2019-05-06T12:27:43.223Z,56.44
2019-05-06T12:30:14.903Z,56.16
2019-05-06T12:32:46.183Z,57.06
2019-05-06T12:35:15.868Z,56.36
2019-05-06T12:37:47.151Z,57.47
2019-05-06T12:40:17.409Z,57.05
2019-05-06T12:42:48.717Z,53.76
2019-05-06T12:45:25.931Z,52.61
2019-05-06T12:47:59.700Z,51.65
2019-05-06T12:50:29.328Z,54.23
2019-05-06T12:52:59.025Z,54.13
2019-05-06T12:55:28.676Z,53.48
2019-05-06T12:57:58.308Z,53.74
2019-05-06T13:00:30.132Z,54.01
2019-05-06T13:03:02.102Z,54.61
2019-05-06T13:05:31.956Z,53.79
2019-05-06T13:08:05.617Z,53.81
2019-05-06T13:10:33.647Z,52.56
2019-05-06T13:13:04.051Z,52.31
2019-05-06T13:15:33.826Z,50.51
2019-05-06T13:18:07.211Z,48.89
2019-05-06T13:20:36.227Z,45.69
2019-05-06T13:23:17.433Z,44.69
2019-05-06T13:25:45.512Z,45.22
2019-05-06T13:28:16.452Z,46.27
2019-05-06T13:30:46.173Z,46.07
2019-05-06T13:33:34.385Z,46.37
2019-05-06T13:36:04.437Z,45.66
2019-05-06T13:38:34.152Z,45.00
2019-05-06T13:41:03.844Z,49.27
2019-05-06T13:43:35.151Z,50.44
2019-05-06T13:46:07.296Z,52.11
2019-05-06T13:48:37.623Z,51.43
2019-05-06T13:51:08.910Z,53.24
2019-05-06T13:53:41.773Z,51.89
2019-05-06T13:56:12.095Z,52.14
2019-05-06T13:58:43.053Z,52.95
2019-05-06T14:01:14.927Z,53.05
2019-05-06T14:03:44.570Z,53.36
2019-05-06T14:06:14.220Z,51.79
2019-05-06T14:08:43.840Z,50.36
2019-05-06T14:11:13.487Z,50.09
2019-05-06T14:13:43.190Z,49.99
2019-05-06T14:16:13.240Z,49.36
2019-05-06T14:18:42.972Z,49.09
2019-05-06T14:21:12.598Z,49.53
2019-05-06T14:23:42.229Z,49.31
2019-05-06T14:26:13.499Z,49.32
2019-05-06T14:28:44.829Z,49.61
2019-05-06T14:31:18.638Z,48.93
2019-05-06T14:33:48.276Z,49.43
2019-05-06T14:36:17.910Z,49.32
2019-05-06T14:38:47.569Z,51.33
2019-05-06T14:41:18.858Z,51.24
2019-05-06T14:43:48.563Z,51.39
2019-05-06T14:46:18.249Z,51.51
2019-05-06T14:48:48.061Z,51.95
2019-05-06T14:51:17.851Z,53.25
2019-05-06T14:53:47.543Z,53.13
2019-05-06T14:56:22.611Z,53.03
2019-05-06T14:59:04.753Z,53.17
2019-05-06T15:01:35.948Z,52.58
2019-05-06T15:04:06.225Z,52.82
2019-05-06T15:06:35.929Z,53.17
2019-05-06T15:09:08.058Z,54.40
2019-05-06T15:11:37.806Z,53.41
2019-05-06T15:14:07.571Z,51.73
2019-05-06T15:16:37.236Z,52.44
2019-05-06T15:19:06.830Z,50.07
2019-05-06T15:21:38.761Z,48.78
2019-05-06T15:24:08.081Z,48.00
2019-05-06T15:26:37.750Z,49.14
2019-05-06T15:29:07.363Z,47.29
2019-05-06T15:31:52.701Z,46.78
2019-05-06T15:34:26.062Z,46.05
2019-05-06T15:36:57.351Z,43.87
2019-05-06T15:39:26.977Z,45.71
2019-05-06T15:41:56.652Z,47.10
2019-05-06T15:44:26.289Z,46.77
2019-05-06T15:46:55.903Z,46.90
2019-05-06T15:49:25.554Z,49.29
2019-05-06T15:51:55.174Z,47.92
2019-05-06T15:54:24.823Z,47.82
2019-05-06T15:56:54.451Z,48.38
2019-05-06T15:59:24.120Z,47.33
2019-05-06T16:01:53.752Z,46.93
2019-05-06T16:04:23.404Z,47.17
2019-05-06T16:06:53.161Z,47.09
2019-05-06T16:09:23.352Z,45.97
2019-05-06T16:11:53.608Z,45.47
2019-05-06T16:14:23.402Z,46.48
2019-05-06T16:16:53.069Z,47.10
2019-05-06T16:19:23.121Z,47.68
2019-05-06T16:21:52.826Z,45.63
2019-05-06T16:24:26.572Z,47.24
2019-05-06T16:26:56.287Z,48.23
2019-05-06T16:29:37.727Z,49.47
2019-05-06T16:32:09.183Z,50.24
2019-05-06T16:34:38.941Z,51.14
2019-05-06T16:37:08.663Z,50.96
2019-05-06T16:39:38.277Z,51.02
2019-05-06T16:42:08.661Z,51.36
2019-05-06T16:44:38.291Z,51.30
2019-05-06T16:47:08.031Z,51.54
2019-05-06T16:49:37.649Z,50.98
2019-05-06T16:52:07.277Z,52.03
2019-05-06T16:54:36.919Z,52.69
2019-05-06T16:57:10.882Z,52.70
2019-05-06T16:59:42.429Z,52.41
2019-05-06T17:02:13.996Z,52.69
2019-05-06T17:04:45.397Z,53.39
2019-05-06T17:07:15.012Z,53.49
2019-05-06T17:09:44.656Z,53.75
2019-05-06T17:12:14.426Z,53.75
2019-05-06T17:14:47.297Z,53.23
2019-05-06T17:17:16.918Z,52.44
2019-05-06T17:19:46.581Z,52.06
2019-05-06T17:22:16.194Z,52.90
2019-05-06T17:24:48.475Z,52.51
2019-05-06T17:27:17.266Z,53.71
2019-05-06T17:29:51.331Z,52.35
2019-05-06T17:32:28.399Z,53.39
2019-05-06T17:34:59.565Z,52.53
2019-05-06T17:37:47.145Z,52.48
2019-05-06T17:40:19.216Z,54.35
2019-05-06T17:42:48.860Z,55.09
2019-05-06T17:45:37.102Z,55.82
2019-05-06T17:48:27.580Z,56.21
2019-05-06T17:51:09.623Z,56.13
2019-05-06T17:53:42.791Z,56.66
2019-05-06T17:56:12.726Z,56.76
2019-05-06T17:58:42.593Z,56.91
2019-05-06T18:01:14.428Z,51.90
2019-05-06T18:03:44.215Z,52.17
2019-05-06T18:06:14.447Z,54.74
2019-05-06T18:08:44.235Z,56.19
2019-05-06T18:11:13.921Z,57.28
2019-05-06T18:13:43.544Z,57.73
2019-05-06T18:16:13.347Z,58.16
2019-05-06T18:18:45.911Z,57.87
2019-05-06T18:21:15.566Z,57.54
2019-05-06T18:23:45.184Z,58.76
2019-05-06T18:26:14.927Z,59.11
2019-05-06T18:28:44.604Z,59.19
2019-05-06T18:31:14.291Z,59.36
2019-05-06T18:33:43.937Z,59.26
2019-05-06T18:36:13.630Z,59.49
2019-05-06T18:38:43.274Z,54.97
2019-05-06T18:41:13.364Z,56.61
2019-05-06T18:43:43.011Z,58.55
2019-05-06T18:46:12.616Z,58.54
2019-05-06T18:48:42.829Z,58.74
2019-05-06T18:51:12.749Z,58.66
2019-05-06T18:53:42.388Z,59.24
2019-05-06T18:56:12.746Z,60.10
2019-05-06T18:58:42.983Z,58.98
2019-05-06T19:01:13.258Z,59.33
2019-05-06T19:04:00.163Z,56.91
2019-05-06T19:06:29.861Z,58.81
2019-05-06T19:09:02.589Z,58.94
2019-05-06T19:11:32.730Z,57.21
2019-05-06T19:14:02.549Z,58.13
2019-05-06T19:16:48.222Z,59.28
2019-05-06T19:19:05.811Z,60.46
2019-05-06T19:21:34.891Z,60.21
2019-05-06T19:24:04.674Z,59.71
2019-05-06T19:26:34.344Z,59.45
2019-05-06T19:29:04.632Z,60.17
2019-05-06T19:31:34.744Z,60.76
2019-05-06T19:34:04.504Z,61.05
2019-05-06T19:36:34.847Z,61.66
2019-05-06T19:39:06.075Z,61.36
2019-05-06T19:41:35.765Z,61.84
2019-05-06T19:44:05.613Z,61.90
2019-05-06T19:46:35.223Z,61.04
2019-05-06T19:49:04.863Z,61.60
2019-05-06T19:51:34.688Z,61.91
2019-05-06T19:54:04.398Z,62.42
2019-05-06T19:56:34.013Z,63.13
2019-05-06T19:59:03.666Z,63.05
2019-05-06T20:01:33.285Z,63.07
2019-05-06T20:04:03.061Z,63.11
2019-05-06T20:06:40.201Z,63.08
2019-05-06T20:09:15.117Z,63.49
2019-05-06T20:11:45.728Z,62.74
2019-05-06T20:14:15.390Z,63.34
2019-05-06T20:16:45.080Z,63.59
2019-05-06T20:19:29.712Z,63.72
2019-05-06T20:21:46.075Z,63.29
2019-05-06T20:24:15.692Z,63.18
2019-05-06T20:26:45.395Z,63.43
2019-05-06T20:29:15.047Z,63.57
2019-05-06T20:31:44.756Z,63.96
2019-05-06T20:34:14.448Z,64.10
2019-05-06T20:36:44.099Z,63.97
2019-05-06T20:39:13.725Z,63.91
2019-05-06T20:41:43.505Z,63.76
2019-05-06T20:44:13.125Z,64.10
2019-05-06T20:46:43.009Z,64.28
2019-05-06T20:49:13.262Z,64.30
2019-05-06T20:51:42.956Z,64.30
2019-05-06T20:54:13.065Z,64.05
2019-05-06T20:56:42.869Z,64.65
2019-05-06T20:59:12.523Z,64.91
2019-05-06T21:01:42.597Z,64.79
2019-05-06T21:04:13.054Z,64.81
2019-05-06T21:06:42.961Z,64.48
2019-05-06T21:09:12.776Z,64.37
2019-05-06T21:11:42.917Z,64.51
2019-05-06T21:14:13.279Z,65.36
2019-05-06T21:16:43.054Z,65.76
2019-05-06T21:19:12.840Z,65.32
2019-05-06T21:21:43.123Z,65.39
2019-05-06T21:24:13.255Z,65.33
2019-05-06T21:26:46.235Z,65.53
2019-05-06T21:29:14.274Z,65.45
2019-05-06T21:31:43.911Z,65.01
2019-05-06T21:34:13.528Z,65.86
2019-05-06T21:36:43.165Z,66.02
2019-05-06T21:39:13.203Z,65.93
2019-05-06T21:41:42.955Z,65.87
2019-05-06T21:44:13.353Z,65.75
2019-05-06T21:46:43.206Z,65.62
2019-05-06T21:49:12.881Z,65.53
2019-05-06T21:51:42.821Z,65.96
2019-05-06T21:54:12.836Z,65.00
2019-05-06T21:56:42.662Z,64.58
2019-05-06T21:59:12.966Z,64.43
2019-05-06T22:01:43.386Z,64.27
2019-05-06T22:04:13.151Z,64.62
2019-05-06T22:06:45.527Z,65.54
2019-05-06T22:09:14.652Z,66.00
2019-05-06T22:11:44.263Z,65.69
2019-05-06T22:14:13.900Z,64.22
2019-05-06T22:16:43.831Z,64.71
2019-05-06T22:19:13.625Z,65.44
2019-05-06T22:21:53.830Z,65.74
2019-05-06T22:24:25.913Z,65.86
2019-05-06T22:26:55.519Z,65.34
2019-05-06T22:29:25.136Z,65.84
2019-05-06T22:31:54.769Z,66.24
2019-05-06T22:34:24.389Z,66.64
2019-05-06T22:36:54.297Z,67.78
2019-05-06T22:39:24.594Z,68.12
2019-05-06T22:41:54.239Z,65.42
2019-05-06T22:44:23.870Z,65.87
2019-05-06T22:46:53.515Z,65.12
2019-05-06T22:49:23.573Z,65.81
2019-05-06T22:51:53.213Z,65.59
2019-05-06T22:54:24.625Z,67.06
2019-05-06T22:56:54.627Z,67.21
2019-05-06T22:59:24.614Z,65.48
2019-05-06T23:02:05.081Z,65.20
2019-05-06T23:04:38.755Z,66.90
2019-05-06T23:07:08.367Z,67.03
2019-05-06T23:09:38.008Z,65.89
2019-05-06T23:12:07.625Z,68.20
2019-05-06T23:14:37.420Z,68.88
2019-05-06T23:17:07.051Z,68.48
2019-05-06T23:19:36.710Z,69.44
2019-05-06T23:22:06.793Z,66.95
2019-05-06T23:24:36.402Z,68.19
2019-05-06T23:27:06.110Z,68.74
2019-05-06T23:29:35.798Z,69.02
2019-05-06T23:32:05.511Z,68.84
2019-05-06T23:34:35.211Z,68.86
2019-05-06T23:37:12.969Z,68.74
2019-05-06T23:40:39.007Z,69.66
2019-05-06T23:43:44.183Z,68.90
2019-05-06T23:47:08.338Z,69.57
2019-05-06T23:50:32.629Z,69.22
2019-05-06T23:53:56.796Z,69.99
2019-05-06T23:56:44.175Z,69.51
2019-05-06T23:59:17.930Z,70.45
